Time;durP1;ratioP1;P1;durP2;ratioP2;P2;SDS_P1;SDS_P2;PMS_P1;PMS_P2;Temp;Humidity;BMP_temperature;BMP_pressure;BME280_temperature;BME280_humidity;BME280_pressure;Samples;Min_cycle;Max_cycle;Signal;HPM_P1;HPM_P2
2023/03/15 00:01:56;;;;;;;1.50;1.00;;;;;;;6.05;63.47;99373.81;6207921;23;20613;-79
2023/03/15 00:04:23;;;;;;;2.20;1.33;;;;;;;5.95;62.89;99378.66;6208371;23;20496;-79
2023/03/15 00:06:49;;;;;;;1.20;1.10;;;;;;;5.90;62.62;99376.22;6206883;23;20401;-79
2023/03/15 00:09:15;;;;;;;1.77;1.47;;;;;;;5.84;62.99;99378.31;6206810;23;20173;-79
2023/03/15 00:11:43;;;;;;;2.20;1.20;;;;;;;5.77;62.99;99385.56;6210723;23;20487;-78
2023/03/15 00:14:09;;;;;;;1.52;1.20;;;;;;;5.72;62.93;99392.75;6207971;23;20185;-79
2023/03/15 00:16:35;;;;;;;11.27;2.33;;;;;;;5.67;62.56;99398.19;6210454;23;20197;-79
2023/03/15 00:19:00;;;;;;;1.30;1.20;;;;;;;5.60;63.10;99398.53;6211508;23;20177;-79
2023/03/15 00:21:28;;;;;;;2.70;1.40;;;;;;;5.53;63.35;99401.41;6210518;23;20428;-79
2023/03/15 00:23:54;;;;;;;1.80;1.40;;;;;;;5.51;63.42;99399.81;6210846;23;20196;-79
2023/03/15 00:26:20;;;;;;;2.65;1.75;;;;;;;5.47;63.62;99404.31;6211457;23;20544;-79
2023/03/15 00:28:45;;;;;;;1.30;1.20;;;;;;;5.45;63.48;99410.50;6207256;23;20672;-79
2023/03/15 00:31:18;;;;;;;1.43;1.20;;;;;;;5.44;63.93;99422.69;6209305;23;20178;-78
2023/03/15 00:33:44;;;;;;;6.88;1.13;;;;;;;5.46;63.50;99420.03;6209385;23;20658;-79
2023/03/15 00:36:10;;;;;;;3.40;1.90;;;;;;;5.46;63.30;99435.66;6211130;23;20198;-79
2023/03/15 00:38:38;;;;;;;1.55;1.20;;;;;;;5.44;63.61;99438.31;6210998;23;20539;-79
2023/03/15 00:41:09;;;;;;;2.05;1.42;;;;;;;5.44;63.45;99448.72;6210245;23;20192;-79
2023/03/15 00:43:35;;;;;;;2.10;1.63;;;;;;;5.52;63.25;99448.38;6210114;23;20769;-80
2023/03/15 00:46:01;;;;;;;2.30;1.83;;;;;;;5.60;63.27;99446.28;6210595;23;20170;-79
2023/03/15 00:48:27;;;;;;;1.42;1.33;;;;;;;5.66;63.35;99447.75;6211627;23;20178;-79
2023/03/15 00:51:07;;;;;;;1.50;1.40;;;;;;;5.70;63.38;99451.94;6211367;23;20305;-79
2023/03/15 00:53:34;;;;;;;3.40;1.50;;;;;;;5.71;63.34;99453.59;6210405;23;20280;-79
2023/03/15 00:56:31;;;;;;;3.55;1.40;;;;;;;5.74;63.20;99456.06;6210305;23;20201;-78
2023/03/15 00:58:57;;;;;;;1.30;1.00;;;;;;;5.74;63.43;99453.47;6183550;23;20221;-84
2023/03/15 01:01:26;;;;;;;4.00;1.40;;;;;;;5.72;63.27;99457.88;6162140;23;20225;-86
2023/03/15 01:03:52;;;;;;;1.20;1.10;;;;;;;5.69;63.46;99458.88;6186884;23;20174;-82
2023/03/15 01:06:24;;;;;;;1.30;1.13;;;;;;;5.69;63.40;99463.25;6162445;23;20306;-84
2023/03/15 01:08:50;;;;;;;2.10;1.60;;;;;;;5.70;63.74;99459.75;6187854;23;20715;-80
2023/03/15 01:11:23;;;;;;;1.05;0.90;;;;;;;5.69;63.76;99473.66;6189627;23;20174;-83
2023/03/15 01:13:54;;;;;;;1.10;1.00;;;;;;;5.69;63.47;99473.66;6183202;23;20178;-79
2023/03/15 01:16:20;;;;;;;1.35;1.10;;;;;;;5.68;64.07;99474.59;6155857;23;20588;-79
2023/03/15 01:18:45;;;;;;;2.17;1.23;;;;;;;5.67;63.78;99483.31;6154918;23;20178;-79
2023/03/15 01:21:13;;;;;;;1.30;1.20;;;;;;;5.66;64.08;99484.22;6155110;23;20221;-80
2023/03/15 01:23:39;;;;;;;2.15;1.00;;;;;;;5.64;63.82;99489.50;6178802;23;20213;-80
2023/03/15 01:26:08;;;;;;;1.67;1.20;;;;;;;5.62;63.88;99493.13;6180797;23;20173;-79
2023/03/15 01:28:34;;;;;;;1.80;1.63;;;;;;;5.62;64.04;99493.13;6178458;23;20236;-77
2023/03/15 01:30:59;;;;;;;6.17;1.50;;;;;;;5.57;64.00;99495.09;6176369;23;20614;-80
2023/03/15 01:33:24;;;;;;;1.93;1.10;;;;;;;5.48;64.00;99496.31;6180866;23;20178;-80
2023/03/15 01:36:02;;;;;;;2.30;1.30;;;;;;;5.43;64.40;99500.91;6149109;23;20448;-80
2023/03/15 01:38:29;;;;;;;2.25;1.40;;;;;;;5.37;64.46;99496.78;6155446;23;20432;-80
2023/03/15 01:40:54;;;;;;;2.40;1.50;;;;;;;5.33;64.62;99495.25;6156019;23;20186;-80
2023/03/15 01:43:22;;;;;;;2.10;1.20;;;;;;;5.34;64.67;99504.75;6150811;23;20936;-80
2023/03/15 01:46:01;;;;;;;2.78;1.25;;;;;;;5.31;64.78;99512.69;6179182;23;20179;-80
2023/03/15 01:48:27;;;;;;;1.77;1.20;;;;;;;5.28;64.77;99512.84;6152228;23;20651;-80
2023/03/15 01:50:54;;;;;;;3.60;1.57;;;;;;;5.25;64.97;99519.03;6154779;23;20178;-79
2023/03/15 01:53:24;;;;;;;1.30;1.10;;;;;;;5.24;64.51;99522.53;6153312;23;20512;-80
2023/03/15 01:55:52;;;;;;;4.20;1.55;;;;;;;5.23;64.69;99528.66;6157665;23;20194;-79
2023/03/15 01:58:24;;;;;;;1.75;1.58;;;;;;;5.13;64.71;99524.78;6152122;23;20189;-80
2023/03/15 02:00:54;;;;;;;1.77;1.58;;;;;;;4.98;64.92;99523.66;6149337;23;20189;-80
2023/03/15 02:03:45;;;;;;;1.95;1.00;;;;;;;4.86;65.51;99529.34;6151787;23;20271;-79
2023/03/15 02:06:16;;;;;;;3.50;1.60;;;;;;;4.82;66.10;99531.25;6153615;23;20433;-79
2023/03/15 02:08:52;;;;;;;1.50;1.40;;;;;;;4.80;66.29;99530.44;6153371;23;20794;-80
2023/03/15 02:11:20;;;;;;;1.45;1.17;;;;;;;4.77;66.50;99534.94;6154000;23;20208;-80
2023/03/15 02:13:48;;;;;;;2.65;1.65;;;;;;;4.71;66.35;99540.41;6148379;23;20188;-79
2023/03/15 02:16:15;;;;;;;2.47;1.63;;;;;;;4.68;66.48;99535.34;6145751;23;20213;-79
2023/03/15 02:18:46;;;;;;;3.20;2.67;;;;;;;4.61;66.30;99540.75;6147412;23;20705;-78
2023/03/15 02:21:11;;;;;;;1.60;1.50;;;;;;;4.58;66.38;99534.84;6174431;23;20170;-79
2023/03/15 02:23:37;;;;;;;1.30;1.20;;;;;;;4.56;66.38;99545.31;6177632;23;20175;-79
2023/03/15 02:26:24;;;;;;;1.27;1.17;;;;;;;4.52;66.38;99548.09;6150641;23;20178;-79
2023/03/15 02:28:53;;;;;;;1.52;1.20;;;;;;;4.49;66.47;99543.88;6149479;23;20178;-79
2023/03/15 02:31:20;;;;;;;2.60;1.10;;;;;;;4.52;66.60;99542.91;6149567;23;20201;-79
2023/03/15 02:33:52;;;;;;;2.95;1.58;;;;;;;4.54;66.30;99544.53;6172719;23;20486;-78
2023/03/15 02:36:26;;;;;;;1.20;1.10;;;;;;;4.52;66.54;99546.34;6160667;23;20208;-79
2023/03/15 02:38:53;;;;;;;1.65;1.30;;;;;;;4.49;66.55;99536.06;6174833;23;20174;-79
2023/03/15 02:41:25;;;;;;;1.50;1.40;;;;;;;4.39;66.66;99542.53;6148114;23;20695;-78
2023/03/15 02:43:57;;;;;;;1.63;1.33;;;;;;;4.26;66.79;99533.53;6175132;23;20193;-79
2023/03/15 02:46:23;;;;;;;2.63;1.63;;;;;;;4.16;66.95;99533.88;6148352;23;20220;-79
2023/03/15 02:48:52;;;;;;;2.00;1.20;;;;;;;4.12;66.95;99531.47;6173397;23;20201;-80
2023/03/15 02:51:22;;;;;;;2.38;1.50;;;;;;;4.10;67.08;99541.91;6150597;23;20459;-80
2023/03/15 02:53:49;;;;;;;2.67;1.38;;;;;;;4.11;67.30;99545.38;6143765;23;20189;-80
2023/03/15 02:56:15;;;;;;;5.03;1.40;;;;;;;4.07;67.12;99544.63;6150496;23;20198;-80
2023/03/15 02:58:44;;;;;;;2.55;1.50;;;;;;;4.03;67.45;99553.44;6147777;23;20178;-80
2023/03/15 03:01:12;;;;;;;1.55;1.42;;;;;;;4.02;67.53;99559.53;6149074;23;20232;-80
2023/03/15 03:03:39;;;;;;;2.25;1.50;;;;;;;4.01;67.77;99568.25;6176667;23;20177;-80
2023/03/15 03:06:05;;;;;;;1.80;1.70;;;;;;;4.01;67.58;99570.84;6154845;23;20180;-80
2023/03/15 03:08:30;;;;;;;1.20;1.10;;;;;;;3.98;67.51;99574.41;6173368;23;20178;-77
2023/03/15 03:10:56;;;;;;;1.63;1.33;;;;;;;3.93;67.86;99581.53;6152850;23;20182;-80
2023/03/15 03:13:21;;;;;;;1.50;1.40;;;;;;;3.92;67.69;99586.78;6150497;23;20285;-79
2023/03/15 03:15:57;;;;;;;1.80;1.43;;;;;;;3.87;67.79;99584.34;6152916;23;20953;-79
2023/03/15 03:18:28;;;;;;;2.97;2.25;;;;;;;3.82;67.76;99581.06;6153948;23;20193;-80
2023/03/15 03:20:58;;;;;;;2.25;1.45;;;;;;;3.76;67.73;99581.31;6150085;23;20178;-79
2023/03/15 03:23:28;;;;;;;1.80;1.70;;;;;;;3.69;68.03;99583.25;6147650;23;20181;-79
2023/03/15 03:25:55;;;;;;;8.52;1.80;;;;;;;3.66;68.08;99596.34;6176307;23;20819;-79
2023/03/15 03:28:23;;;;;;;3.85;1.67;;;;;;;3.62;68.54;99592.19;6148353;23;20680;-79
2023/03/15 03:30:49;;;;;;;2.13;1.90;;;;;;;3.59;68.59;99589.69;6147496;23;20209;-79
2023/03/15 03:33:15;;;;;;;2.35;1.73;;;;;;;3.52;68.69;99588.22;6146492;23;20518;-79
2023/03/15 03:35:41;;;;;;;2.10;1.47;;;;;;;3.44;68.62;99583.28;6173190;23;20221;-79
2023/03/15 03:38:08;;;;;;;2.70;1.73;;;;;;;3.35;68.87;99585.34;6173095;23;20549;-79
2023/03/15 03:40:38;;;;;;;1.73;1.60;;;;;;;3.21;68.99;99594.44;6144656;23;20165;-79
2023/03/15 03:43:06;;;;;;;2.85;1.67;;;;;;;3.15;69.13;99594.66;6144407;23;20190;-79
2023/03/15 03:45:32;;;;;;;3.95;2.78;;;;;;;3.10;69.67;99601.75;6174656;23;20205;-79
2023/03/15 03:47:58;;;;;;;3.17;2.20;;;;;;;3.05;69.47;99598.44;6145280;23;20197;-79
2023/03/15 03:50:24;;;;;;;3.13;1.80;;;;;;;3.02;69.96;99596.81;6142984;23;20178;-79
2023/03/15 03:52:50;;;;;;;2.58;2.38;;;;;;;3.02;70.02;99609.78;6146608;23;20196;-79
2023/03/15 03:55:24;;;;;;;2.30;1.85;;;;;;;3.05;69.95;99611.44;6148929;23;20224;-79
2023/03/15 03:57:50;;;;;;;3.15;1.70;;;;;;;3.09;69.88;99607.84;6173755;23;20623;-79
2023/03/15 04:00:28;;;;;;;2.35;1.75;;;;;;;3.09;69.69;99607.84;6147989;23;20224;-79
2023/03/15 04:02:54;;;;;;;1.77;1.60;;;;;;;3.10;69.71;99609.53;6173827;23;20182;-79
2023/03/15 04:05:20;;;;;;;3.13;1.67;;;;;;;3.10;69.77;99602.59;6146135;23;20173;-79
2023/03/15 04:07:45;;;;;;;3.30;1.70;;;;;;;3.09;69.59;99613.03;6146995;23;20494;-79
2023/03/15 04:10:14;;;;;;;2.35;2.15;;;;;;;3.04;69.73;99622.72;6145566;23;20692;-79
2023/03/15 04:12:43;;;;;;;4.43;2.28;;;;;;;2.97;69.93;99629.88;6150318;23;20952;-84
2023/03/15 04:15:12;;;;;;;3.85;1.90;;;;;;;2.91;70.15;99626.59;6153843;23;20283;-84
2023/03/15 04:17:38;;;;;;;1.92;1.75;;;;;;;2.88;70.08;99633.56;6155885;23;20190;-80
2023/03/15 04:20:10;;;;;;;3.58;1.90;;;;;;;2.88;70.17;99643.97;6155122;23;20177;-84
2023/03/15 04:22:38;;;;;;;2.50;2.00;;;;;;;2.84;70.25;99647.56;6156965;23;20202;-82
2023/03/15 04:25:29;;;;;;;2.75;1.65;;;;;;;2.82;69.95;99636.38;6185659;23;20214;-83
2023/03/15 04:28:21;;;;;;;3.00;2.42;;;;;;;2.76;69.78;99639.16;6185941;23;20187;-80
2023/03/15 04:31:09;;;;;;;3.40;1.92;;;;;;;2.71;70.03;99635.03;6159138;23;20276;-82
2023/03/15 04:33:58;;;;;;;2.80;2.13;;;;;;;2.67;70.54;99639.44;6185123;23;20173;-82
2023/03/15 04:36:44;;;;;;;3.15;1.90;;;;;;;2.70;70.42;99643.69;6184543;23;20254;-81
2023/03/15 04:39:28;;;;;;;2.80;1.85;;;;;;;2.74;70.59;99646.16;6196611;23;20171;-84
2023/03/15 04:42:14;;;;;;;2.65;1.63;;;;;;;2.75;70.34;99650.41;6185415;23;20222;-81
2023/03/15 04:45:00;;;;;;;3.05;1.90;;;;;;;2.66;70.21;99640.34;6162307;23;20168;-80
2023/03/15 04:47:53;;;;;;;2.78;1.85;;;;;;;2.59;70.84;99651.78;6131313;23;20190;-84
2023/03/15 04:50:57;;;;;;;3.38;1.77;;;;;;;2.57;70.91;99658.78;6138696;23;20185;-84
2023/03/15 04:53:38;;;;;;;3.85;2.60;;;;;;;2.49;70.88;99665.94;6161989;23;20183;-83
2023/03/15 04:56:22;;;;;;;3.20;2.58;;;;;;;2.40;70.95;99659.28;6189639;23;20611;-83
2023/03/15 04:59:07;;;;;;;3.58;2.30;;;;;;;2.34;71.31;99662.91;6194427;23;20269;-84
2023/03/15 05:01:54;;;;;;;2.33;2.13;;;;;;;2.31;71.24;99656.97;6170834;23;20191;-86
2023/03/15 05:04:38;;;;;;;2.80;2.28;;;;;;;2.30;71.48;99648.34;6172800;23;20167;-86
2023/03/15 05:07:27;;;;;;;2.90;2.58;;;;;;;2.31;71.19;99657.81;6140611;23;20629;-79
2023/03/15 05:10:17;;;;;;;3.35;2.60;;;;;;;2.32;71.24;99648.28;6158662;23;20276;-83
2023/03/15 05:12:51;;;;;;;3.97;2.00;;;;;;;2.31;71.13;99657.81;6186757;23;20198;-83
2023/03/15 05:15:23;;;;;;;3.03;2.72;;;;;;;2.32;71.20;99646.56;6158800;23;20653;-79
2023/03/15 05:18:09;;;;;;;3.00;2.63;;;;;;;2.37;71.43;99652.44;6184919;23;20175;-87
2023/03/15 05:20:59;;;;;;;3.88;2.53;;;;;;;2.40;71.19;99660.16;6160387;23;20548;-83
2023/03/15 05:23:35;;;;;;;3.30;2.22;;;;;;;2.41;70.80;99654.06;6158187;23;20187;-79
2023/03/15 05:26:26;;;;;;;3.70;2.97;;;;;;;2.42;71.35;99665.25;6145724;23;20184;-81
2023/03/15 05:29:17;;;;;;;2.50;1.90;;;;;;;2.37;71.05;99670.56;6179536;23;20185;-79
2023/03/15 05:32:05;;;;;;;2.10;1.90;;;;;;;2.27;71.06;99676.94;6187768;23;20263;-79
2023/03/15 05:34:47;;;;;;;2.28;2.08;;;;;;;2.18;71.26;99685.81;6153816;23;20168;-79
2023/03/15 05:37:31;;;;;;;3.50;2.38;;;;;;;2.15;71.26;99692.81;6182738;23;20185;-79
2023/03/15 05:40:32;;;;;;;2.47;2.05;;;;;;;2.17;71.51;99685.88;6143536;23;20191;-78
2023/03/15 05:43:17;;;;;;;4.25;2.05;;;;;;;2.22;71.47;99684.00;6118537;23;20199;-79
2023/03/15 05:46:03;;;;;;;4.70;2.55;;;;;;;2.26;71.33;99690.78;6179983;23;20226;-78
2023/03/15 05:48:38;;;;;;;2.08;1.70;;;;;;;2.28;71.28;99694.19;6179708;23;20176;-79
2023/03/15 05:51:28;;;;;;;2.88;2.47;;;;;;;2.29;71.33;99690.69;6181103;23;20644;-79
2023/03/15 05:54:14;;;;;;;5.55;2.75;;;;;;;2.29;71.33;99693.28;6167559;23;20183;-78
2023/03/15 05:57:09;;;;;;;4.47;2.70;;;;;;;2.32;71.24;99694.94;6150100;23;20590;-78
2023/03/15 05:59:49;;;;;;;1.75;1.65;;;;;;;2.34;71.12;99687.97;6172895;23;20798;-79
2023/03/15 06:02:33;;;;;;;3.95;2.95;;;;;;;2.35;71.11;99700.91;6173251;23;21391;-80
2023/03/15 06:05:14;;;;;;;5.43;4.45;;;;;;;2.36;71.47;99694.81;6169870;23;20428;-81
2023/03/15 06:07:40;;;;;;;6.60;4.30;;;;;;;2.36;71.38;99692.22;6172713;23;20178;-79
2023/03/15 06:10:06;;;;;;;7.33;4.40;;;;;;;2.37;71.38;99709.47;6167998;23;20205;-80
2023/03/15 06:12:32;;;;;;;10.27;5.55;;;;;;;2.41;71.47;99710.25;6145809;23;20457;-80
2023/03/15 06:14:58;;;;;;;9.25;4.93;;;;;;;2.44;71.26;99705.81;6143386;23;20185;-79
2023/03/15 06:17:23;;;;;;;9.03;4.43;;;;;;;2.49;71.54;99710.88;6168102;23;21069;-80
2023/03/15 06:19:49;;;;;;;4.57;3.37;;;;;;;2.52;71.08;99707.34;6145432;23;20175;-79
2023/03/15 06:22:14;;;;;;;3.30;2.47;;;;;;;2.49;71.18;99715.22;6170219;23;20198;-80
2023/03/15 06:24:47;;;;;;;4.22;3.00;;;;;;;2.40;70.97;99718.88;6120284;23;20170;-79
2023/03/15 06:27:12;;;;;;;4.47;2.60;;;;;;;2.31;70.96;99716.56;6170074;23;20236;-80
2023/03/15 06:29:38;;;;;;;5.73;3.93;;;;;;;2.29;71.56;99721.78;6143329;23;20175;-80
2023/03/15 06:32:04;;;;;;;7.17;5.17;;;;;;;2.33;71.49;99725.16;6141463;23;20276;-80
2023/03/15 06:34:31;;;;;;;9.80;4.72;;;;;;;2.40;70.84;99727.53;6142291;23;20178;-79
2023/03/15 06:36:56;;;;;;;8.30;3.77;;;;;;;2.49;70.75;99725.56;6142430;23;20213;-80
2023/03/15 06:39:22;;;;;;;5.20;3.00;;;;;;;2.56;70.90;99721.91;6168017;23;20591;-80
2023/03/15 06:41:52;;;;;;;8.05;4.25;;;;;;;2.63;70.91;99723.44;6142527;23;20202;-79
2023/03/15 06:44:19;;;;;;;4.57;3.45;;;;;;;2.68;70.91;99729.34;6140770;23;20178;-79
2023/03/15 06:46:48;;;;;;;4.35;2.83;;;;;;;2.73;70.64;99727.44;6140556;23;20187;-79
2023/03/15 06:49:13;;;;;;;8.00;3.22;;;;;;;2.81;70.51;99735.00;6167174;23;20182;-79
2023/03/15 06:51:41;;;;;;;4.53;3.05;;;;;;;2.90;70.39;99739.06;6144076;23;20257;-79
2023/03/15 06:54:08;;;;;;;6.50;3.03;;;;;;;2.97;70.28;99735.38;6168340;23;20738;-79
2023/03/15 06:56:36;;;;;;;7.50;3.75;;;;;;;3.02;70.16;99744.72;6146257;23;20210;-79
2023/03/15 06:59:02;;;;;;;3.60;2.80;;;;;;;3.09;69.76;99748.00;6174202;23;20702;-80
2023/03/15 07:01:27;;;;;;;4.20;3.80;;;;;;;3.17;69.87;99753.78;6171199;23;20230;-79
2023/03/15 07:03:52;;;;;;;3.13;2.70;;;;;;;3.21;69.74;99755.38;6168714;23;20413;-79
2023/03/15 07:06:18;;;;;;;7.23;4.33;;;;;;;3.26;69.56;99758.69;6167477;23;20233;-79
2023/03/15 07:08:43;;;;;;;10.33;4.90;;;;;;;3.31;69.72;99755.94;6168149;23;20197;-79
2023/03/15 07:11:09;;;;;;;7.10;5.30;;;;;;;3.37;69.74;99770.47;6168195;23;20190;-79
2023/03/15 07:13:34;;;;;;;5.10;4.17;;;;;;;3.42;69.56;99763.41;6168435;23;20214;-79
2023/03/15 07:16:00;;;;;;;10.93;3.57;;;;;;;3.50;69.71;99764.00;6143794;23;20230;-79
2023/03/15 07:18:25;;;;;;;5.07;3.57;;;;;;;3.58;69.18;99762.00;6167846;23;20228;-79
2023/03/15 07:20:55;;;;;;;4.20;3.57;;;;;;;3.67;69.13;99764.31;6169961;23;20176;-79
2023/03/15 07:23:20;;;;;;;4.00;3.28;;;;;;;3.74;68.99;99758.00;6171067;23;20225;-79
2023/03/15 07:25:46;;;;;;;4.23;3.80;;;;;;;3.85;68.77;99772.41;6170733;23;20612;-79
2023/03/15 07:28:12;;;;;;;5.93;3.30;;;;;;;3.93;68.51;99771.22;6171280;23;20178;-80
2023/03/15 07:30:37;;;;;;;3.37;2.90;;;;;;;4.02;68.30;99766.63;6132281;23;20461;-79
2023/03/15 07:33:03;;;;;;;3.80;2.40;;;;;;;4.09;68.18;99768.97;6170731;23;20175;-79
2023/03/15 07:35:28;;;;;;;6.93;3.47;;;;;;;4.17;67.83;99764.34;6172054;23;20200;-80
2023/03/15 07:37:53;;;;;;;3.50;2.33;;;;;;;4.27;67.57;99769.25;6173827;23;20166;-79
2023/03/15 07:40:19;;;;;;;4.80;2.53;;;;;;;4.38;67.09;99767.94;6173131;23;20204;-79
2023/03/15 07:42:44;;;;;;;2.97;2.67;;;;;;;4.48;66.52;99768.44;6172664;23;20223;-79
2023/03/15 07:45:11;;;;;;;3.38;1.90;;;;;;;4.57;66.32;99773.34;6147119;23;20168;-79
2023/03/15 07:47:37;;;;;;;2.40;2.20;;;;;;;4.63;66.50;99778.31;6172726;23;20196;-80
2023/03/15 07:50:05;;;;;;;11.20;3.30;;;;;;;4.73;66.22;99781.44;6172440;23;20185;-80
2023/03/15 07:52:30;;;;;;;5.53;2.70;;;;;;;4.84;66.07;99789.69;6167085;23;20205;-80
2023/03/15 07:54:56;;;;;;;4.80;3.70;;;;;;;4.94;66.23;99779.78;6169310;23;20205;-80
2023/03/15 07:57:21;;;;;;;2.90;2.20;;;;;;;5.02;65.70;99777.75;6171573;23;20553;-80
2023/03/15 07:59:46;;;;;;;5.00;2.90;;;;;;;5.08;65.45;99785.31;6171121;23;20185;-80
2023/03/15 08:02:13;;;;;;;3.37;2.00;;;;;;;5.19;65.15;99778.84;6172047;23;20197;-80
2023/03/15 08:04:38;;;;;;;4.88;3.70;;;;;;;5.27;65.23;99782.84;6170368;23;20439;-80
2023/03/15 08:07:04;;;;;;;3.17;2.37;;;;;;;5.36;64.91;99772.97;6170096;23;20183;-80
2023/03/15 08:09:31;;;;;;;4.20;3.23;;;;;;;5.63;64.80;99776.22;6170931;23;20178;-80
2023/03/15 08:11:57;;;;;;;4.47;2.55;;;;;;;6.43;63.08;99773.75;6170778;23;20449;-79
2023/03/15 08:14:23;;;;;;;3.53;2.20;;;;;;;7.41;60.25;99764.00;6171205;23;20182;-79
2023/03/15 08:16:49;;;;;;;2.13;1.90;;;;;;;8.43;57.00;99770.28;6174475;23;20811;-79
2023/03/15 08:19:15;;;;;;;4.80;3.30;;;;;;;9.26;55.14;99765.78;6171280;23;20193;-80
2023/03/15 08:21:44;;;;;;;7.27;2.83;;;;;;;9.96;53.00;99767.03;6173104;23;20198;-80
2023/03/15 08:24:10;;;;;;;4.07;2.83;;;;;;;10.65;51.06;99754.19;6174338;23;20652;-81
2023/03/15 08:26:36;;;;;;;5.63;2.80;;;;;;;11.16;49.79;99759.75;6171827;23;20172;-80
2023/03/15 08:29:01;;;;;;;4.63;3.00;;;;;;;11.32;49.23;99753.53;6172423;23;20181;-81
2023/03/15 08:31:27;;;;;;;5.40;2.83;;;;;;;11.61;48.65;99744.59;6172592;23;20208;-81
2023/03/15 08:33:52;;;;;;;4.97;3.23;;;;;;;12.11;47.51;99745.66;6172695;23;20693;-80
2023/03/15 08:36:18;;;;;;;4.70;2.50;;;;;;;12.63;46.15;99743.84;6117548;23;20225;-81
2023/03/15 08:38:44;;;;;;;3.00;2.60;;;;;;;13.15;45.06;99737.53;6169255;23;20209;-80
2023/03/15 08:41:09;;;;;;;7.10;4.50;;;;;;;13.55;43.71;99731.97;6170560;23;20509;-80
2023/03/15 08:43:34;;;;;;;4.37;2.57;;;;;;;13.60;42.78;99737.75;6172062;23;20225;-81
2023/03/15 08:46:00;;;;;;;3.00;2.43;;;;;;;13.79;42.24;99737.22;6173440;23;20167;-80
2023/03/15 08:48:26;;;;;;;5.10;2.13;;;;;;;13.98;41.49;99734.03;6170888;23;20185;-81
2023/03/15 08:50:51;;;;;;;3.67;1.70;;;;;;;14.14;40.45;99733.72;6173009;23;20173;-80
2023/03/15 08:53:16;;;;;;;3.10;2.17;;;;;;;14.41;39.76;99741.31;6172904;23;20428;-80
2023/03/15 08:55:42;;;;;;;3.77;1.83;;;;;;;14.56;39.50;99742.81;6173827;23;20206;-81
2023/03/15 08:58:07;;;;;;;3.53;2.00;;;;;;;14.67;39.30;99746.44;6172642;23;20174;-81
2023/03/15 09:00:33;;;;;;;3.37;1.87;;;;;;;14.89;38.81;99749.06;6172651;23;20250;-81
2023/03/15 09:02:59;;;;;;;4.63;1.93;;;;;;;15.15;38.05;99746.97;6172375;23;20205;-81
2023/03/15 09:05:25;;;;;;;3.63;1.70;;;;;;;15.35;37.38;99749.81;6171480;23;20175;-81
2023/03/15 09:07:51;;;;;;;3.47;1.80;;;;;;;15.56;36.88;99752.53;6173219;23;20605;-81
2023/03/15 09:10:18;;;;;;;2.53;1.88;;;;;;;15.74;36.48;99752.81;6174885;23;20167;-80
2023/03/15 09:12:46;;;;;;;1.40;1.20;;;;;;;15.81;35.97;99760.13;6148411;23;20202;-81
2023/03/15 09:15:12;;;;;;;2.45;1.85;;;;;;;15.63;35.38;99757.16;6173994;23;20158;-82
2023/03/15 09:17:39;;;;;;;1.50;1.25;;;;;;;15.37;35.32;99767.25;6149982;23;20222;-82
2023/03/15 09:20:13;;;;;;;2.38;1.33;;;;;;;15.16;35.26;99763.69;6173288;23;20178;-82
2023/03/15 09:22:39;;;;;;;1.48;1.38;;;;;;;14.66;35.86;99771.16;6179358;23;20197;-81
2023/03/15 09:25:05;;;;;;;2.33;1.20;;;;;;;14.33;36.58;99763.03;6176787;23;20658;-82
2023/03/15 09:27:31;;;;;;;1.40;1.30;;;;;;;14.19;37.03;99758.00;6173090;23;20190;-82
2023/03/15 09:29:56;;;;;;;4.73;1.43;;;;;;;14.04;37.12;99769.72;6173841;23;20200;-81
2023/03/15 09:32:22;;;;;;;2.00;1.13;;;;;;;13.78;37.63;99767.25;6172376;23;20188;-81
2023/03/15 09:34:48;;;;;;;1.83;1.37;;;;;;;13.43;38.37;99765.41;6173178;23;20189;-80
2023/03/15 09:37:14;;;;;;;3.75;1.45;;;;;;;13.19;38.25;99772.41;6172999;23;20562;-81
2023/03/15 09:39:40;;;;;;;2.50;1.80;;;;;;;12.90;38.92;99777.13;6171577;23;20210;-80
2023/03/15 09:42:15;;;;;;;1.97;1.30;;;;;;;12.69;39.41;99774.19;6175565;23;20660;-80
2023/03/15 09:44:47;;;;;;;1.40;1.00;;;;;;;12.50;39.71;99777.25;6173278;23;20189;-79
2023/03/15 09:47:27;;;;;;;2.10;1.70;;;;;;;12.17;40.16;99784.72;6175972;23;20173;-79
2023/03/15 09:50:04;;;;;;;1.52;1.40;;;;;;;12.01;40.80;99791.13;6175430;23;20189;-79
2023/03/15 09:52:43;;;;;;;4.60;1.40;;;;;;;12.09;41.20;99787.03;6176765;23;20206;-79
2023/03/15 09:55:22;;;;;;;1.55;1.38;;;;;;;12.08;40.82;99795.88;6174710;23;20233;-79
2023/03/15 09:57:52;;;;;;;1.58;1.33;;;;;;;12.07;41.08;99788.94;6172226;23;20506;-79
2023/03/15 10:00:29;;;;;;;1.58;1.23;;;;;;;12.05;41.22;99796.09;6174916;23;20193;-78
2023/03/15 10:02:59;;;;;;;3.33;1.75;;;;;;;12.03;41.47;99792.72;6174123;23;20444;-78
2023/03/15 10:05:41;;;;;;;3.28;1.50;;;;;;;11.91;41.76;99790.91;6176003;23;20212;-80
2023/03/15 10:08:16;;;;;;;2.25;1.40;;;;;;;11.89;41.73;99798.06;6175992;23;20174;-78
2023/03/15 10:11:13;;;;;;;2.50;1.50;;;;;;;11.98;41.21;99786.91;6175133;23;20182;-79
2023/03/15 10:14:03;;;;;;;1.17;1.00;;;;;;;11.90;40.53;99789.19;6088795;23;20758;-85
2023/03/15 10:16:49;;;;;;;2.00;1.40;;;;;;;11.79;40.89;99795.13;6094505;23;20207;-84
2023/03/15 10:19:43;;;;;;;2.13;1.08;;;;;;;11.80;41.08;99794.22;6111146;23;20182;-84
2023/03/15 10:22:24;;;;;;;2.03;1.77;;;;;;;11.78;40.41;99790.84;6115494;23;20199;-84
2023/03/15 10:24:55;;;;;;;2.00;1.00;;;;;;;11.83;40.14;99793.16;6141577;23;20187;-84
2023/03/15 10:27:24;;;;;;;2.10;1.20;;;;;;;12.10;39.32;99790.53;6141406;23;20281;-84
2023/03/15 10:29:53;;;;;;;1.50;1.40;;;;;;;12.35;38.44;99782.63;6139775;23;20649;-84
2023/03/15 10:32:24;;;;;;;1.98;1.45;;;;;;;12.61;38.11;99778.22;6137434;23;20186;-84
2023/03/15 10:34:54;;;;;;;1.48;1.10;;;;;;;12.73;37.11;99776.50;6139628;23;20166;-84
2023/03/15 10:37:22;;;;;;;2.60;1.63;;;;;;;12.54;37.79;99787.50;6142807;23;20277;-84
2023/03/15 10:39:54;;;;;;;4.75;3.30;;;;;;;12.32;37.99;99777.59;6144523;23;20179;-84
2023/03/15 10:42:31;;;;;;;11.13;5.13;;;;;;;12.16;37.41;99774.31;6143918;23;20246;-85
2023/03/15 10:44:59;;;;;;;5.50;3.80;;;;;;;12.16;37.63;99775.16;6137160;23;20504;-84
2023/03/15 10:47:25;;;;;;;2.10;1.38;;;;;;;12.20;36.94;99767.88;6113677;23;20189;-84
2023/03/15 10:49:58;;;;;;;3.33;2.17;;;;;;;12.21;37.04;99764.31;6139636;23;20270;-84
2023/03/15 10:52:30;;;;;;;3.17;1.73;;;;;;;12.21;37.29;99774.00;6138573;23;20198;-84
2023/03/15 10:54:58;;;;;;;3.50;2.30;;;;;;;12.12;37.66;99770.19;6139266;23;20182;-85
2023/03/15 10:57:27;;;;;;;1.70;1.60;;;;;;;11.99;38.24;99762.28;6141403;23;20183;-85
2023/03/15 10:59:57;;;;;;;2.22;1.40;;;;;;;11.66;38.35;99760.03;6141320;23;20269;-84
2023/03/15 11:02:24;;;;;;;2.40;1.50;;;;;;;11.49;39.10;99755.91;6113824;23;20661;-84
2023/03/15 11:05:01;;;;;;;2.17;1.60;;;;;;;11.35;39.70;99767.31;6138275;23;20629;-84
2023/03/15 11:07:27;;;;;;;1.83;1.60;;;;;;;11.32;40.14;99764.88;6139861;23;20189;-84
2023/03/15 11:09:57;;;;;;;7.20;4.00;;;;;;;11.54;39.75;99774.84;6139213;23;20171;-84
2023/03/15 11:12:25;;;;;;;2.85;2.13;;;;;;;11.74;39.19;99758.59;6139097;23;20953;-85
2023/03/15 11:14:55;;;;;;;5.63;3.55;;;;;;;11.81;39.25;99760.84;6135781;23;20191;-85
2023/03/15 11:17:28;;;;;;;2.05;1.33;;;;;;;11.72;39.38;99757.88;6137881;23;20206;-84
2023/03/15 11:20:18;;;;;;;6.15;2.88;;;;;;;11.65;38.51;99756.56;6139553;23;20656;-84
2023/03/15 11:22:43;;;;;;;4.22;2.63;;;;;;;11.70;38.08;99759.75;6135934;23;20202;-84
2023/03/15 11:25:16;;;;;;;4.80;1.50;;;;;;;11.79;37.48;99746.94;6110618;23;20186;-84
2023/03/15 11:27:43;;;;;;;3.17;2.30;;;;;;;11.78;37.33;99748.72;6139987;23;20182;-84
2023/03/15 11:30:14;;;;;;;2.17;1.10;;;;;;;11.89;37.26;99742.78;6140123;23;20212;-84
2023/03/15 11:32:41;;;;;;;1.60;1.48;;;;;;;11.85;37.51;99736.81;6142000;23;20194;-84
2023/03/15 11:35:12;;;;;;;1.33;0.90;;;;;;;11.81;37.54;99740.63;6140387;23;20186;-84
2023/03/15 11:37:56;;;;;;;1.80;1.30;;;;;;;11.74;37.08;99734.06;6142081;23;20193;-84
2023/03/15 11:40:28;;;;;;;1.90;1.52;;;;;;;11.66;37.18;99739.00;6142335;23;20186;-84
2023/03/15 11:42:59;;;;;;;2.05;1.35;;;;;;;11.65;37.25;99730.28;6142602;23;20203;-84
2023/03/15 11:45:30;;;;;;;2.15;1.52;;;;;;;11.76;36.95;99726.09;6143178;23;20183;-83
2023/03/15 11:48:33;;;;;;;1.23;0.90;;;;;;;11.77;35.51;99727.75;6143498;23;20183;-84
2023/03/15 11:51:00;;;;;;;1.55;1.20;;;;;;;11.61;34.92;99717.41;6143466;23;20274;-84
2023/03/15 11:53:33;;;;;;;3.38;1.00;;;;;;;11.49;34.77;99719.06;6144113;23;20295;-84
2023/03/15 11:56:19;;;;;;;1.15;1.05;;;;;;;11.44;34.62;99716.72;6143720;23;20203;-84
2023/03/15 11:59:00;;;;;;;1.20;1.10;;;;;;;11.44;34.94;99722.00;6144039;23;20182;-84